Aubrey, Arkansas
Current Conditions -  °F | °C
As of 4:15 PM on Sunday 25 Jan 2015 (Local Time) from KUTA Reporting Station
Scattered Clouds Scattered Clouds  
Wind Chill: 52°   Ceiling: Unl
Heat Index: 52°   Visibility: 10mi
Dew Point: 41°   Wind: 13mph
Humidity: 67%   Direction: 280°W
Pressure: 29.77"   Gusts: 20mph
Location:  34.72°N, 90.9°W
Report Text: KUTA 252215Z AUTO 28011G17KT 10SM SCT060 11/05 A2977 RMK AO2 LTG DSNT E
Loading
Personal Weather Stations






























Interactive Weather Map New forecast layout! Learn more

10-Day Weather Forecast

Advertisements
Track Severe Weather on mobile